METAR Data
IDs: Format: Raw Decoded Include TAF

Data at: 2222 UTC 01 Dec 2021

KY23 012215Z AUTO 21005KT 10SM SCT080 BKN110 07/03 A2957 RMK AO2 T00710025